sensor_id;sensor_type;location;lat;lon;timestamp;temperature;humidity
56123;DHT22;42426;46.104;19.656;2023-07-16T00:13:32;640.60;2048.00
56123;DHT22;42426;46.104;19.656;2023-07-16T00:50:38;640.40;2048.00
56123;DHT22;42426;46.104;19.656;2023-07-16T01:36:33;640.10;2073.60
56123;DHT22;42426;46.104;19.656;2023-07-16T02:32:56;615.20;2124.80
56123;DHT22;42426;46.104;19.656;2023-07-16T03:02:29;614.90;2176.00
56123;DHT22;42426;46.104;19.656;2023-07-16T03:15:01;615.00;2201.60
56123;DHT22;42426;46.104;19.656;2023-07-16T03:34:37;615.10;2227.20
56123;DHT22;42426;46.104;19.656;2023-07-16T03:40:25;615.20;2227.20
56123;DHT22;42426;46.104;19.656;2023-07-16T03:46:13;615.10;2252.80
56123;DHT22;42426;46.104;19.656;2023-07-16T03:52:01;615.10;2252.80
56123;DHT22;42426;46.104;19.656;2023-07-16T04:05:01;615.20;2278.40
56123;DHT22;42426;46.104;19.656;2023-07-16T04:10:49;615.00;2278.40
56123;DHT22;42426;46.104;19.656;2023-07-16T04:26:39;615.10;2304.00
56123;DHT22;42426;46.104;19.656;2023-07-16T04:40:33;615.20;2329.60
56123;DHT22;42426;46.104;19.656;2023-07-16T04:46:21;615.20;2329.60
56123;DHT22;42426;46.104;19.656;2023-07-16T04:55:38;615.30;2355.20
56123;DHT22;42426;46.104;19.656;2023-07-16T05:08:09;640.10;2329.60
56123;DHT22;42426;46.104;19.656;2023-07-16T05:13:57;640.30;2355.20
56123;DHT22;42426;46.104;19.656;2023-07-16T05:20:16;640.30;2355.20
56123;DHT22;42426;46.104;19.656;2023-07-16T05:26:04;640.40;2355.20
56123;DHT22;42426;46.104;19.656;2023-07-16T05:43:20;640.70;2304.00
56123;DHT22;42426;46.104;19.656;2023-07-16T05:52:29;665.60;2329.60
56123;DHT22;42426;46.104;19.656;2023-07-16T07:51:29;768.30;1996.80
56123;DHT22;42426;46.104;19.656;2023-07-16T07:53:55;768.30;1996.80
56123;DHT22;42426;46.104;19.656;2023-07-16T07:56:20;768.30;1996.80
56123;DHT22;42426;46.104;19.656;2023-07-16T07:58:46;768.30;1996.80
56123;DHT22;42426;46.104;19.656;2023-07-16T08:01:12;768.40;1996.80
56123;DHT22;42426;46.104;19.656;2023-07-16T08:03:38;768.30;1996.80
56123;DHT22;42426;46.104;19.656;2023-07-16T08:06:04;768.30;1996.80
56123;DHT22;42426;46.104;19.656;2023-07-16T08:08:31;768.40;1996.80
56123;DHT22;42426;46.104;19.656;2023-07-16T08:10:57;768.50;1971.20
56123;DHT22;42426;46.104;19.656;2023-07-16T08:13:23;768.50;1971.20
56123;DHT22;42426;46.104;19.656;2023-07-16T08:15:49;768.60;1920.00
56123;DHT22;42426;46.104;19.656;2023-07-16T08:18:14;768.80;1920.00
56123;DHT22;42426;46.104;19.656;2023-07-16T08:20:40;768.80;1920.00
56123;DHT22;42426;46.104;19.656;2023-07-16T08:23:09;793.80;1920.00
56123;DHT22;42426;46.104;19.656;2023-07-16T08:25:34;793.60;1920.00
56123;DHT22;42426;46.104;19.656;2023-07-16T08:28:02;793.60;1920.00
56123;DHT22;42426;46.104;19.656;2023-07-16T08:30:28;793.70;1920.00
56123;DHT22;42426;46.104;19.656;2023-07-16T08:32:54;793.80;1868.80
56123;DHT22;42426;46.104;19.656;2023-07-16T08:35:20;793.90;1894.40
56123;DHT22;42426;46.104;19.656;2023-07-16T08:37:46;793.90;1868.80
56123;DHT22;42426;46.104;19.656;2023-07-16T08:40:12;794.10;1868.80
56123;DHT22;42426;46.104;19.656;2023-07-16T08:42:39;794.10;1843.20
56123;DHT22;42426;46.104;19.656;2023-07-16T08:45:10;794.20;1868.80
56123;DHT22;42426;46.104;19.656;2023-07-16T08:47:37;794.20;1843.20
56123;DHT22;42426;46.104;19.656;2023-07-16T08:50:03;794.30;1817.60
56123;DHT22;42426;46.104;19.656;2023-07-16T08:52:29;794.40;1817.60
56123;DHT22;42426;46.104;19.656;2023-07-16T08:54:56;794.50;1817.60
56123;DHT22;42426;46.104;19.656;2023-07-16T08:57:22;794.50;1817.60
56123;DHT22;42426;46.104;19.656;2023-07-16T08:59:48;819.20;1817.60
56123;DHT22;42426;46.104;19.656;2023-07-16T09:02:21;819.20;1817.60
56123;DHT22;42426;46.104;19.656;2023-07-16T09:04:47;819.20;1792.00
56123;DHT22;42426;46.104;19.656;2023-07-16T09:07:22;819.30;1766.40
56123;DHT22;42426;46.104;19.656;2023-07-16T09:09:59;819.30;1766.40
56123;DHT22;42426;46.104;19.656;2023-07-16T09:12:26;819.30;1766.40
56123;DHT22;42426;46.104;19.656;2023-07-16T09:17:24;819.60;1740.80
56123;DHT22;42426;46.104;19.656;2023-07-16T09:22:18;819.80;1715.20
56123;DHT22;42426;46.104;19.656;2023-07-16T09:24:47;819.70;1740.80
56123;DHT22;42426;46.104;19.656;2023-07-16T09:27:13;819.70;1689.60
56123;DHT22;42426;46.104;19.656;2023-07-16T09:29:40;819.90;1715.20
56123;DHT22;42426;46.104;19.656;2023-07-16T09:32:06;820.00;1638.40
56123;DHT22;42426;46.104;19.656;2023-07-16T09:34:32;820.00;1638.40
56123;DHT22;42426;46.104;19.656;2023-07-16T09:36:58;820.00;1612.80
56123;DHT22;42426;46.104;19.656;2023-07-16T09:39:26;820.00;1638.40
56123;DHT22;42426;46.104;19.656;2023-07-16T09:41:52;820.00;1638.40
56123;DHT22;42426;46.104;19.656;2023-07-16T09:44:18;820.00;1612.80
56123;DHT22;42426;46.104;19.656;2023-07-16T09:46:45;820.10;1638.40
56123;DHT22;42426;46.104;19.656;2023-07-16T09:59:01;845.30;1561.60
56123;DHT22;42426;46.104;19.656;2023-07-16T10:01:29;845.30;1561.60
56123;DHT22;42426;46.104;19.656;2023-07-16T11:57:16;896.30;1305.60
56123;DHT22;42426;46.104;19.656;2023-07-16T11:59:42;896.00;1305.60
56123;DHT22;42426;46.104;19.656;2023-07-16T12:02:08;896.00;1305.60
56123;DHT22;42426;46.104;19.656;2023-07-16T12:04:34;896.10;1331.20
56123;DHT22;42426;46.104;19.656;2023-07-16T12:07:01;896.10;1356.80
56123;DHT22;42426;46.104;19.656;2023-07-16T12:09:27;896.30;1280.00
56123;DHT22;42426;46.104;19.656;2023-07-16T12:11:52;896.30;1254.40
56123;DHT22;42426;46.104;19.656;2023-07-16T12:14:18;896.30;1280.00
56123;DHT22;42426;46.104;19.656;2023-07-16T12:16:44;896.30;1305.60
56123;DHT22;42426;46.104;19.656;2023-07-16T12:19:10;896.40;1280.00
56123;DHT22;42426;46.104;19.656;2023-07-16T12:21:36;896.30;1280.00
56123;DHT22;42426;46.104;19.656;2023-07-16T12:24:02;896.20;1305.60
56123;DHT22;42426;46.104;19.656;2023-07-16T12:26:28;896.20;1331.20
56123;DHT22;42426;46.104;19.656;2023-07-16T12:28:54;896.30;1305.60
56123;DHT22;42426;46.104;19.656;2023-07-16T12:31:20;896.40;1305.60
56123;DHT22;42426;46.104;19.656;2023-07-16T12:33:47;896.50;1280.00
56123;DHT22;42426;46.104;19.656;2023-07-16T12:36:14;896.50;1356.80
56123;DHT22;42426;46.104;19.656;2023-07-16T12:38:40;896.60;1305.60
56123;DHT22;42426;46.104;19.656;2023-07-16T12:41:07;896.70;1305.60
56123;DHT22;42426;46.104;19.656;2023-07-16T12:43:33;896.80;1356.80
56123;DHT22;42426;46.104;19.656;2023-07-16T12:46:01;896.80;1331.20
56123;DHT22;42426;46.104;19.656;2023-07-16T12:48:29;896.80;1305.60
56123;DHT22;42426;46.104;19.656;2023-07-16T12:50:55;896.70;1305.60
56123;DHT22;42426;46.104;19.656;2023-07-16T12:53:22;896.60;1305.60
56123;DHT22;42426;46.104;19.656;2023-07-16T12:55:47;896.60;1305.60
56123;DHT22;42426;46.104;19.656;2023-07-16T13:00:48;896.50;1305.60
56123;DHT22;42426;46.104;19.656;2023-07-16T13:03:14;896.70;1331.20
56123;DHT22;42426;46.104;19.656;2023-07-16T13:05:43;896.70;1331.20
56123;DHT22;42426;46.104;19.656;2023-07-16T13:08:09;896.80;1382.40
56123;DHT22;42426;46.104;19.656;2023-07-16T13:10:35;896.90;1382.40
56123;DHT22;42426;46.104;19.656;2023-07-16T13:13:01;896.90;1331.20
56123;DHT22;42426;46.104;19.656;2023-07-16T13:15:29;896.90;1331.20
56123;DHT22;42426;46.104;19.656;2023-07-16T13:17:55;896.80;1305.60
56123;DHT22;42426;46.104;19.656;2023-07-16T13:20:21;896.80;1382.40
56123;DHT22;42426;46.104;19.656;2023-07-16T13:22:47;896.90;1382.40
56123;DHT22;42426;46.104;19.656;2023-07-16T13:25:14;896.90;1331.20
56123;DHT22;42426;46.104;19.656;2023-07-16T13:27:40;896.90;1331.20
56123;DHT22;42426;46.104;19.656;2023-07-16T13:30:06;896.90;1331.20
56123;DHT22;42426;46.104;19.656;2023-07-16T13:32:32;896.90;1331.20
56123;DHT22;42426;46.104;19.656;2023-07-16T13:34:58;896.90;1331.20
56123;DHT22;42426;46.104;19.656;2023-07-16T13:37:24;896.90;1356.80
56123;DHT22;42426;46.104;19.656;2023-07-16T13:39:49;896.90;1331.20
56123;DHT22;42426;46.104;19.656;2023-07-16T13:42:15;921.60;1408.00
56123;DHT22;42426;46.104;19.656;2023-07-16T13:44:41;921.60;1356.80
56123;DHT22;42426;46.104;19.656;2023-07-16T13:47:07;921.60;1331.20
56123;DHT22;42426;46.104;19.656;2023-07-16T13:49:32;896.90;1305.60
56123;DHT22;42426;46.104;19.656;2023-07-16T13:51:58;896.90;1280.00
56123;DHT22;42426;46.104;19.656;2023-07-16T13:54:24;896.80;1331.20
56123;DHT22;42426;46.104;19.656;2023-07-16T13:56:50;896.90;1331.20
56123;DHT22;42426;46.104;19.656;2023-07-16T13:59:16;896.90;1331.20
56123;DHT22;42426;46.104;19.656;2023-07-16T14:01:43;921.60;1305.60
56123;DHT22;42426;46.104;19.656;2023-07-16T14:04:09;896.90;1280.00
56123;DHT22;42426;46.104;19.656;2023-07-16T14:06:35;921.60;1331.20
56123;DHT22;42426;46.104;19.656;2023-07-16T14:09:02;921.70;1356.80
56123;DHT22;42426;46.104;19.656;2023-07-16T14:11:35;921.70;1305.60
56123;DHT22;42426;46.104;19.656;2023-07-16T14:14:01;921.80;1305.60
56123;DHT22;42426;46.104;19.656;2023-07-16T14:16:27;921.90;1305.60
56123;DHT22;42426;46.104;19.656;2023-07-16T14:18:53;921.90;1280.00
56123;DHT22;42426;46.104;19.656;2023-07-16T14:21:20;921.90;1280.00
56123;DHT22;42426;46.104;19.656;2023-07-16T14:23:46;922.10;1280.00
56123;DHT22;42426;46.104;19.656;2023-07-16T14:26:13;922.30;1254.40
56123;DHT22;42426;46.104;19.656;2023-07-16T14:28:39;922.40;1254.40
56123;DHT22;42426;46.104;19.656;2023-07-16T14:31:04;947.20;1254.40
56123;DHT22;42426;46.104;19.656;2023-07-16T14:33:30;947.30;1254.40
56123;DHT22;42426;46.104;19.656;2023-07-16T14:35:57;947.40;1228.80
56123;DHT22;42426;46.104;19.656;2023-07-16T14:38:23;947.40;1177.60
56123;DHT22;42426;46.104;19.656;2023-07-16T14:40:49;947.50;1228.80
56123;DHT22;42426;46.104;19.656;2023-07-16T14:43:18;947.50;1177.60
56123;DHT22;42426;46.104;19.656;2023-07-16T14:45:45;947.50;1203.20
56123;DHT22;42426;46.104;19.656;2023-07-16T14:48:11;947.60;1203.20
56123;DHT22;42426;46.104;19.656;2023-07-16T14:50:37;947.60;1177.60
56123;DHT22;42426;46.104;19.656;2023-07-16T14:53:04;947.70;1203.20
56123;DHT22;42426;46.104;19.656;2023-07-16T14:55:29;947.90;1177.60
56123;DHT22;42426;46.104;19.656;2023-07-16T14:57:56;947.90;1177.60
56123;DHT22;42426;46.104;19.656;2023-07-16T15:03:44;948.00;1152.00
56123;DHT22;42426;46.104;19.656;2023-07-16T15:09:32;947.80;1177.60
56123;DHT22;42426;46.104;19.656;2023-07-16T15:15:19;947.50;1203.20
56123;DHT22;42426;46.104;19.656;2023-07-16T15:21:07;947.50;1177.60
56123;DHT22;42426;46.104;19.656;2023-07-16T15:26:55;947.60;1177.60
56123;DHT22;42426;46.104;19.656;2023-07-16T15:32:42;948.00;1152.00
56123;DHT22;42426;46.104;19.656;2023-07-16T15:38:30;972.90;1126.40
56123;DHT22;42426;46.104;19.656;2023-07-16T15:44:17;973.50;1100.80
56123;DHT22;42426;46.104;19.656;2023-07-16T15:50:05;999.00;1049.60
56123;DHT22;42426;46.104;19.656;2023-07-16T15:55:53;1024.70;1024.00
56123;DHT22;42426;46.104;19.656;2023-07-16T15:58:19;1024.40;1024.00
56123;DHT22;42426;46.104;19.656;2023-07-16T16:00:46;999.00;1049.60
56123;DHT22;42426;46.104;19.656;2023-07-16T16:03:12;998.40;1075.20
56123;DHT22;42426;46.104;19.656;2023-07-16T16:05:39;973.30;1100.80
56123;DHT22;42426;46.104;19.656;2023-07-16T16:08:18;973.20;1126.40
56123;DHT22;42426;46.104;19.656;2023-07-16T16:10:47;998.60;1152.00
56123;DHT22;42426;46.104;19.656;2023-07-16T16:13:13;999.20;1049.60
56123;DHT22;42426;46.104;19.656;2023-07-16T16:15:40;1024.50;1024.00
56123;DHT22;42426;46.104;19.656;2023-07-16T16:18:06;1024.90;1024.00
56123;DHT22;42426;46.104;19.656;2023-07-16T16:20:32;1049.70;1024.00
56123;DHT22;42426;46.104;19.656;2023-07-16T16:22:59;1024.70;1024.00
56123;DHT22;42426;46.104;19.656;2023-07-16T16:25:31;1024.70;1024.00
56123;DHT22;42426;46.104;19.656;2023-07-16T16:27:58;1024.30;1024.00
56123;DHT22;42426;46.104;19.656;2023-07-16T16:30:24;999.00;1075.20
56123;DHT22;42426;46.104;19.656;2023-07-16T16:32:50;999.00;1075.20
56123;DHT22;42426;46.104;19.656;2023-07-16T16:35:20;998.90;1075.20
56123;DHT22;42426;46.104;19.656;2023-07-16T16:37:46;998.60;1100.80
56123;DHT22;42426;46.104;19.656;2023-07-16T16:40:12;973.60;1100.80
56123;DHT22;42426;46.104;19.656;2023-07-16T16:42:38;973.10;1100.80
56123;DHT22;42426;46.104;19.656;2023-07-16T16:45:04;973.10;1152.00
56123;DHT22;42426;46.104;19.656;2023-07-16T16:47:34;972.80;1152.00
56123;DHT22;42426;46.104;19.656;2023-07-16T16:50:00;947.90;1152.00
56123;DHT22;42426;46.104;19.656;2023-07-16T16:52:26;947.80;1152.00
56123;DHT22;42426;46.104;19.656;2023-07-16T16:54:52;947.60;1152.00
56123;DHT22;42426;46.104;19.656;2023-07-16T16:57:18;947.60;1152.00
56123;DHT22;42426;46.104;19.656;2023-07-16T16:59:46;947.40;1152.00
56123;DHT22;42426;46.104;19.656;2023-07-16T17:02:12;922.50;1177.60
56123;DHT22;42426;46.104;19.656;2023-07-16T17:04:39;922.50;1177.60
56123;DHT22;42426;46.104;19.656;2023-07-16T17:07:05;947.20;1177.60
56123;DHT22;42426;46.104;19.656;2023-07-16T17:09:36;947.40;1177.60
56123;DHT22;42426;46.104;19.656;2023-07-16T17:12:02;947.60;1152.00
56123;DHT22;42426;46.104;19.656;2023-07-16T17:14:28;947.30;1177.60
56123;DHT22;42426;46.104;19.656;2023-07-16T17:16:54;922.30;1203.20
56123;DHT22;42426;46.104;19.656;2023-07-16T17:19:22;922.00;1228.80
56123;DHT22;42426;46.104;19.656;2023-07-16T17:21:48;921.80;1254.40
56123;DHT22;42426;46.104;19.656;2023-07-16T17:24:14;896.90;1228.80
56123;DHT22;42426;46.104;19.656;2023-07-16T17:26:40;896.80;1254.40
56123;DHT22;42426;46.104;19.656;2023-07-16T17:29:07;896.50;1280.00
56123;DHT22;42426;46.104;19.656;2023-07-16T17:31:34;896.20;1305.60
56123;DHT22;42426;46.104;19.656;2023-07-16T17:34:01;896.10;1331.20
56123;DHT22;42426;46.104;19.656;2023-07-16T17:36:27;896.00;1331.20
56123;DHT22;42426;46.104;19.656;2023-07-16T17:38:53;871.30;1356.80
56123;DHT22;42426;46.104;19.656;2023-07-16T17:41:18;871.10;1356.80
56123;DHT22;42426;46.104;19.656;2023-07-16T17:43:45;871.00;1356.80
56123;DHT22;42426;46.104;19.656;2023-07-16T17:46:11;871.00;1356.80
56123;DHT22;42426;46.104;19.656;2023-07-16T17:48:37;870.90;1382.40
56123;DHT22;42426;46.104;19.656;2023-07-16T17:51:31;870.90;1382.40
56123;DHT22;42426;46.104;19.656;2023-07-16T17:53:58;870.70;1382.40
56123;DHT22;42426;46.104;19.656;2023-07-16T17:56:24;870.50;1408.00
56123;DHT22;42426;46.104;19.656;2023-07-16T17:58:49;870.50;1408.00
56123;DHT22;42426;46.104;19.656;2023-07-16T18:01:15;845.70;1433.60
56123;DHT22;42426;46.104;19.656;2023-07-16T18:03:41;870.40;1459.20
56123;DHT22;42426;46.104;19.656;2023-07-16T18:06:07;845.60;1484.80
56123;DHT22;42426;46.104;19.656;2023-07-16T18:08:33;845.50;1484.80
56123;DHT22;42426;46.104;19.656;2023-07-16T18:18:18;845.40;1510.40
56123;DHT22;42426;46.104;19.656;2023-07-16T18:20:44;845.20;1510.40
56123;DHT22;42426;46.104;19.656;2023-07-16T18:28:03;844.90;1536.00
56123;DHT22;42426;46.104;19.656;2023-07-16T18:42:40;820.10;1561.60
56123;DHT22;42426;46.104;19.656;2023-07-16T18:45:07;819.90;1587.20
56123;DHT22;42426;46.104;19.656;2023-07-16T18:52:25;819.90;1587.20
56123;DHT22;42426;46.104;19.656;2023-07-16T18:54:51;819.70;1561.60
56123;DHT22;42426;46.104;19.656;2023-07-16T19:07:02;819.50;1612.80
56123;DHT22;42426;46.104;19.656;2023-07-16T19:09:30;819.20;1638.40
56123;DHT22;42426;46.104;19.656;2023-07-16T19:11:56;794.50;1664.00
56123;DHT22;42426;46.104;19.656;2023-07-16T20:13:06;793.60;1792.00
56123;DHT22;42426;46.104;19.656;2023-07-16T20:15:32;768.80;1766.40
56123;DHT22;42426;46.104;19.656;2023-07-16T20:17:58;768.60;1792.00
56123;DHT22;42426;46.104;19.656;2023-07-16T20:20:24;768.60;1792.00
56123;DHT22;42426;46.104;19.656;2023-07-16T20:35:10;768.60;1817.60
56123;DHT22;42426;46.104;19.656;2023-07-16T20:37:36;768.50;1817.60
56123;DHT22;42426;46.104;19.656;2023-07-16T20:40:04;768.30;1817.60
56123;DHT22;42426;46.104;19.656;2023-07-16T20:42:36;768.20;1843.20
56123;DHT22;42426;46.104;19.656;2023-07-16T20:47:45;768.00;1843.20
56123;DHT22;42426;46.104;19.656;2023-07-16T20:50:13;768.00;1843.20
56123;DHT22;42426;46.104;19.656;2023-07-16T20:52:39;768.00;1843.20
56123;DHT22;42426;46.104;19.656;2023-07-16T20:55:07;768.00;1868.80
56123;DHT22;42426;46.104;19.656;2023-07-16T20:57:33;768.00;1868.80
56123;DHT22;42426;46.104;19.656;2023-07-16T20:59:59;743.30;1868.80
56123;DHT22;42426;46.104;19.656;2023-07-16T21:02:25;743.30;1868.80
56123;DHT22;42426;46.104;19.656;2023-07-16T21:04:51;743.20;1868.80
56123;DHT22;42426;46.104;19.656;2023-07-16T21:07:16;743.20;1894.40
56123;DHT22;42426;46.104;19.656;2023-07-16T21:09:42;743.00;1894.40
56123;DHT22;42426;46.104;19.656;2023-07-16T21:12:08;743.10;1894.40
56123;DHT22;42426;46.104;19.656;2023-07-16T21:14:34;743.00;1920.00
56123;DHT22;42426;46.104;19.656;2023-07-16T21:17:00;742.90;1920.00
56123;DHT22;42426;46.104;19.656;2023-07-16T21:19:26;742.90;1920.00
56123;DHT22;42426;46.104;19.656;2023-07-16T21:21:52;742.90;1945.60
56123;DHT22;42426;46.104;19.656;2023-07-16T21:24:17;742.80;1945.60
56123;DHT22;42426;46.104;19.656;2023-07-16T21:26:44;742.80;1945.60
56123;DHT22;42426;46.104;19.656;2023-07-16T21:29:10;742.80;1945.60
56123;DHT22;42426;46.104;19.656;2023-07-16T21:31:36;742.80;1945.60
56123;DHT22;42426;46.104;19.656;2023-07-16T21:34:02;742.70;1971.20
56123;DHT22;42426;46.104;19.656;2023-07-16T21:36:28;742.60;1971.20
56123;DHT22;42426;46.104;19.656;2023-07-16T21:38:53;742.60;1971.20
56123;DHT22;42426;46.104;19.656;2023-07-16T21:41:19;742.60;1971.20
56123;DHT22;42426;46.104;19.656;2023-07-16T21:43:45;742.70;1996.80
56123;DHT22;42426;46.104;19.656;2023-07-16T21:46:11;742.60;1996.80
56123;DHT22;42426;46.104;19.656;2023-07-16T21:55:55;742.60;1996.80
56123;DHT22;42426;46.104;19.656;2023-07-16T21:58:21;742.50;1996.80
56123;DHT22;42426;46.104;19.656;2023-07-16T22:03:13;742.60;1996.80
56123;DHT22;42426;46.104;19.656;2023-07-16T22:05:38;742.40;1996.80
56123;DHT22;42426;46.104;19.656;2023-07-16T22:08:05;742.50;2022.40
56123;DHT22;42426;46.104;19.656;2023-07-16T22:10:30;742.40;2022.40
56123;DHT22;42426;46.104;19.656;2023-07-16T22:12:56;742.50;2022.40
56123;DHT22;42426;46.104;19.656;2023-07-16T23:18:46;717.30;2099.20
56123;DHT22;42426;46.104;19.656;2023-07-16T23:21:12;717.20;2099.20
56123;DHT22;42426;46.104;19.656;2023-07-16T23:23:38;717.20;2099.20
56123;DHT22;42426;46.104;19.656;2023-07-16T23:26:04;717.00;2124.80
56123;DHT22;42426;46.104;19.656;2023-07-16T23:30:56;717.20;2124.80
